createdAt,value
2022-08-25T00:02:13.240Z,100292.06
2022-08-25T00:04:40.324Z,100287.81
2022-08-25T00:07:07.763Z,100293.72
2022-08-25T00:09:35.402Z,100289.53
2022-08-25T00:12:03.017Z,100294.91
2022-08-25T00:14:33.780Z,100291.59
2022-08-25T00:17:00.789Z,100294.00
2022-08-25T00:19:32.070Z,100287.84
2022-08-25T00:22:00.769Z,100286.16
2022-08-25T00:24:27.803Z,100290.47
2022-08-25T00:26:56.957Z,100281.81
2022-08-25T00:29:26.045Z,100283.72
2022-08-25T00:31:53.177Z,100289.47
2022-08-25T00:34:24.189Z,100291.63
2022-08-25T00:36:51.767Z,100287.84
2022-08-25T00:39:20.977Z,100296.50
2022-08-25T00:41:49.793Z,100290.25
2022-08-25T00:44:19.853Z,100294.06
2022-08-25T00:46:53.617Z,100301.25
2022-08-25T00:49:24.849Z,100294.81
2022-08-25T00:51:58.779Z,100299.69
2022-08-25T00:54:30.879Z,100295.19
2022-08-25T00:56:59.781Z,100304.88
2022-08-25T00:59:27.594Z,100300.13
2022-08-25T01:01:55.338Z,100304.78
2022-08-25T01:04:21.866Z,100307.69
2022-08-25T01:06:49.300Z,100309.78
2022-08-25T01:09:17.092Z,100310.53
2022-08-25T01:11:44.789Z,100310.28
2022-08-25T01:14:14.765Z,100314.41
2022-08-25T01:16:43.487Z,100315.38
2022-08-25T01:19:15.226Z,100323.25
2022-08-25T01:21:48.170Z,100319.91
2022-08-25T01:24:44.902Z,100317.69
2022-08-25T01:27:11.554Z,100322.41
2022-08-25T01:29:38.504Z,100319.38
2022-08-25T01:32:08.980Z,100319.50
2022-08-25T01:34:38.306Z,100327.97
2022-08-25T01:37:05.384Z,100320.94
2022-08-25T01:39:36.794Z,100323.16
2022-08-25T01:42:04.032Z,100327.88
2022-08-25T01:44:31.757Z,100318.34
2022-08-25T01:46:58.361Z,100317.00
2022-08-25T01:49:24.807Z,100315.56
2022-08-25T01:52:06.607Z,100318.47
2022-08-25T01:54:33.417Z,100323.84
2022-08-25T01:56:59.810Z,100310.25
2022-08-25T01:59:27.291Z,100313.25
2022-08-25T02:02:00.200Z,100309.88
2022-08-25T02:04:31.959Z,100318.81
2022-08-25T02:07:03.674Z,100318.41
2022-08-25T02:09:30.193Z,100319.03
2022-08-25T02:11:56.763Z,100316.81
2022-08-25T02:14:24.004Z,100314.53
2022-08-25T02:16:51.982Z,100320.06
2022-08-25T02:19:19.879Z,100319.16
2022-08-25T02:21:46.775Z,100315.09
2022-08-25T02:24:13.655Z,100314.28
2022-08-25T02:26:41.136Z,100320.50
2022-08-25T02:29:08.194Z,100312.50
2022-08-25T02:31:35.762Z,100319.34
2022-08-25T02:34:02.750Z,100321.31
2022-08-25T02:36:30.632Z,100318.94
2022-08-25T02:38:57.089Z,100311.69
2022-08-25T02:41:30.957Z,100317.16
2022-08-25T02:43:59.014Z,100316.25
2022-08-25T02:46:25.612Z,100315.88
2022-08-25T02:48:53.294Z,100318.97
2022-08-25T02:51:22.656Z,100316.91
2022-08-25T02:53:49.972Z,100310.25
2022-08-25T02:56:18.813Z,100305.53
2022-08-25T02:58:46.322Z,100306.00
2022-08-25T03:01:13.069Z,100302.00
2022-08-25T03:03:40.784Z,100301.75
2022-08-25T03:06:09.688Z,100308.69
2022-08-25T03:08:37.529Z,100301.63
2022-08-25T03:11:05.149Z,100296.72
2022-08-25T03:13:32.674Z,100296.25
2022-08-25T03:16:00.315Z,100300.00
2022-08-25T03:18:27.487Z,100295.94
2022-08-25T03:20:54.813Z,100293.84
2022-08-25T03:23:21.244Z,100295.72
2022-08-25T03:26:06.286Z,100292.00
2022-08-25T03:28:33.226Z,100297.19
2022-08-25T03:31:00.947Z,100303.97
2022-08-25T03:33:29.305Z,100303.81
2022-08-25T03:35:56.366Z,100307.00
2022-08-25T03:38:25.231Z,100302.84
2022-08-25T03:40:52.114Z,100299.88
2022-08-25T03:43:19.400Z,100291.75
2022-08-25T03:45:47.680Z,100285.00
2022-08-25T03:48:15.176Z,100273.91
2022-08-25T03:50:51.675Z,100276.69
2022-08-25T03:53:19.486Z,100271.13
2022-08-25T03:55:46.029Z,100276.56
2022-08-25T03:58:12.591Z,100280.47
2022-08-25T04:00:39.396Z,100269.44
2022-08-25T04:03:05.987Z,100277.00
2022-08-25T04:05:32.928Z,100281.16
2022-08-25T04:08:01.797Z,100287.81
2022-08-25T04:10:28.925Z,100283.06
2022-08-25T04:12:56.057Z,100291.84
2022-08-25T04:15:23.936Z,100289.69
2022-08-25T04:17:58.696Z,100287.50
2022-08-25T04:20:25.169Z,100293.25
2022-08-25T04:22:51.639Z,100290.28
2022-08-25T04:25:18.122Z,100292.19
2022-08-25T04:27:44.539Z,100303.53
2022-08-25T04:30:11.670Z,100294.53
2022-08-25T04:32:38.076Z,100299.97
2022-08-25T04:35:05.367Z,100299.56
2022-08-25T04:37:32.426Z,100296.00
2022-08-25T04:39:58.858Z,100300.59
2022-08-25T04:42:26.913Z,100301.38
2022-08-25T04:44:54.319Z,100303.19
2022-08-25T04:47:20.784Z,100297.22
2022-08-25T04:49:47.787Z,100297.81
2022-08-25T04:52:14.737Z,100294.53
2022-08-25T04:54:42.255Z,100290.56
2022-08-25T04:57:09.480Z,100296.63
2022-08-25T04:59:36.023Z,100295.22
2022-08-25T05:02:03.291Z,100292.88
2022-08-25T05:04:31.458Z,100300.94
2022-08-25T05:06:58.589Z,100302.16
2022-08-25T05:09:26.110Z,100298.25
2022-08-25T05:11:53.576Z,100302.25
2022-08-25T05:14:25.560Z,100299.03
2022-08-25T05:16:53.296Z,100302.16
2022-08-25T05:19:19.857Z,100294.03
2022-08-25T05:21:46.298Z,100288.84
2022-08-25T05:24:12.734Z,100284.66
2022-08-25T05:26:39.683Z,100273.69
2022-08-25T05:29:06.880Z,100279.06
2022-08-25T05:31:36.397Z,100283.50
2022-08-25T05:34:07.890Z,100285.19
2022-08-25T05:36:35.222Z,100290.66
2022-08-25T05:39:01.938Z,100297.44
2022-08-25T05:41:30.333Z,100300.03
2022-08-25T05:43:57.268Z,100298.34
2022-08-25T05:46:24.451Z,100299.72
2022-08-25T05:48:51.227Z,100299.91
2022-08-25T05:51:18.911Z,100289.91
2022-08-25T05:53:47.665Z,100293.53
2022-08-25T05:56:14.361Z,100283.50
2022-08-25T05:58:42.164Z,100286.22
2022-08-25T06:01:28.934Z,100288.59
2022-08-25T06:03:55.525Z,100279.25
2022-08-25T06:06:24.429Z,100280.59
2022-08-25T06:08:51.608Z,100276.91
2022-08-25T06:11:18.211Z,100270.19
2022-08-25T06:13:45.505Z,100268.84
2022-08-25T06:16:11.969Z,100267.72
2022-08-25T06:18:38.447Z,100272.84
2022-08-25T06:21:12.809Z,100267.78
2022-08-25T06:23:40.128Z,100267.38
2022-08-25T06:26:07.460Z,100268.59
2022-08-25T06:28:33.940Z,100257.84
2022-08-25T06:31:02.160Z,100254.88
2022-08-25T06:33:29.137Z,100265.03
2022-08-25T06:35:56.460Z,100268.84
2022-08-25T06:38:23.537Z,100268.16
2022-08-25T06:40:52.009Z,100267.84
2022-08-25T06:43:20.092Z,100264.44
2022-08-25T06:45:46.570Z,100257.88
2022-08-25T06:48:13.091Z,100256.59
2022-08-25T06:50:40.203Z,100259.50
2022-08-25T06:53:06.719Z,100257.03
2022-08-25T06:55:35.064Z,100252.31
2022-08-25T06:58:03.423Z,100244.16
2022-08-25T07:00:32.113Z,100243.47
2022-08-25T07:03:01.006Z,100243.72
2022-08-25T07:05:42.621Z,100246.56
2022-08-25T07:08:11.623Z,100247.34
2022-08-25T07:10:38.091Z,100236.25
2022-08-25T07:13:04.499Z,100248.59
2022-08-25T07:15:30.905Z,100236.38
2022-08-25T07:17:57.692Z,100231.13
2022-08-25T07:22:52.249Z,100236.72
2022-08-25T07:25:18.907Z,100237.94
2022-08-25T07:27:45.857Z,100235.53
2022-08-25T07:30:12.333Z,100235.53
2022-08-25T07:32:42.279Z,100235.44
2022-08-25T07:35:27.303Z,100234.25
2022-08-25T07:38:06.603Z,100233.91
2022-08-25T07:40:37.487Z,100226.72
2022-08-25T07:43:09.460Z,100232.34
2022-08-25T07:45:46.882Z,100233.91
2022-08-25T07:48:19.595Z,100222.63
2022-08-25T07:50:47.121Z,100229.72
2022-08-25T07:53:15.769Z,100233.38
2022-08-25T07:55:45.129Z,100229.69
2022-08-25T07:58:13.782Z,100228.41
2022-08-25T08:00:42.384Z,100235.44
2022-08-25T08:03:12.903Z,100240.72
2022-08-25T08:05:46.736Z,100231.72
2022-08-25T08:08:16.340Z,100239.16
2022-08-25T08:11:03.183Z,100244.91
2022-08-25T08:13:34.862Z,100234.13
2022-08-25T08:16:09.278Z,100235.81
2022-08-25T08:18:35.784Z,100240.75
2022-08-25T08:21:02.224Z,100234.91
2022-08-25T08:23:30.481Z,100233.25
2022-08-25T08:25:57.135Z,100229.47
2022-08-25T08:28:27.736Z,100221.53
2022-08-25T08:30:54.218Z,100226.50
2022-08-25T08:33:23.751Z,100226.38
2022-08-25T08:36:09.723Z,100222.81
2022-08-25T08:38:37.918Z,100232.78
2022-08-25T08:42:09.408Z,100227.66
2022-08-25T08:45:02.597Z,100219.97
2022-08-25T08:47:56.470Z,100205.94
2022-08-25T08:50:32.928Z,100202.72
2022-08-25T08:53:16.472Z,100212.25
2022-08-25T08:55:53.503Z,100207.84
2022-08-25T08:58:26.222Z,100208.28
2022-08-25T09:00:58.182Z,100203.50
2022-08-25T09:03:29.662Z,100208.56
2022-08-25T09:05:59.191Z,100202.84
2022-08-25T09:08:26.716Z,100194.72
2022-08-25T09:11:23.039Z,100206.63
2022-08-25T09:14:18.583Z,100196.88
2022-08-25T09:17:01.145Z,100198.31
2022-08-25T09:19:41.769Z,100199.38
2022-08-25T09:22:33.508Z,100190.97
2022-08-25T09:25:10.431Z,100189.91
2022-08-25T09:28:03.771Z,100188.53
2022-08-25T09:30:58.972Z,100176.25
2022-08-25T09:33:28.498Z,100181.31
2022-08-25T09:35:57.516Z,100175.13
2022-08-25T09:38:26.185Z,100173.13
2022-08-25T09:40:56.073Z,100174.84
2022-08-25T09:43:31.850Z,100162.09
2022-08-25T09:46:02.479Z,100165.41
2022-08-25T09:48:40.683Z,100159.25
2022-08-25T09:51:42.359Z,100147.31
2022-08-25T09:54:18.278Z,100157.25
2022-08-25T09:56:55.519Z,100145.94
2022-08-25T09:59:36.034Z,100151.34
2022-08-25T10:02:23.816Z,100139.78
2022-08-25T10:04:50.398Z,100137.63
2022-08-25T10:07:30.433Z,100148.03
2022-08-25T10:10:04.521Z,100138.06
2022-08-25T10:12:42.466Z,100137.00
2022-08-25T10:15:31.843Z,100134.25
2022-08-25T10:18:21.946Z,100145.56
2022-08-25T10:21:15.053Z,100141.09
2022-08-25T10:23:49.537Z,100138.72
2022-08-25T10:26:36.970Z,100130.59
2022-08-25T10:29:22.979Z,100125.16
2022-08-25T10:32:11.940Z,100131.09
2022-08-25T10:34:51.769Z,100122.59
2022-08-25T10:37:44.846Z,100122.00
2022-08-25T10:40:46.083Z,100109.25
2022-08-25T10:43:31.392Z,100125.00
2022-08-25T10:46:13.487Z,100118.16
2022-08-25T10:49:02.554Z,100106.50
2022-08-25T10:51:41.481Z,100103.94
2022-08-25T10:54:15.946Z,100096.34
2022-08-25T10:56:49.435Z,100089.03
2022-08-25T10:59:25.365Z,100090.38
2022-08-25T11:02:15.195Z,100086.09
2022-08-25T11:04:52.712Z,100087.13
2022-08-25T11:07:27.177Z,100082.66
2022-08-25T11:09:59.699Z,100090.19
2022-08-25T11:13:00.976Z,100083.81
2022-08-25T11:15:36.873Z,100080.69
2022-08-25T11:18:14.482Z,100080.88
2022-08-25T11:21:16.459Z,100066.72
2022-08-25T11:24:09.156Z,100069.41
2022-08-25T11:26:37.784Z,100076.16
2022-08-25T11:29:14.328Z,100073.75
2022-08-25T11:31:52.236Z,100056.38
2022-08-25T11:34:21.401Z,100056.97
2022-08-25T11:37:03.844Z,100056.09
2022-08-25T11:39:51.771Z,100051.38
2022-08-25T11:42:45.732Z,100051.97
2022-08-25T11:45:39.901Z,100052.88
2022-08-25T11:48:30.017Z,100045.38
2022-08-25T11:51:12.408Z,100045.34
2022-08-25T11:53:42.405Z,100043.00
2022-08-25T11:56:32.677Z,100042.22
2022-08-25T11:58:59.298Z,100053.50
2022-08-25T12:01:51.755Z,100045.50
2022-08-25T12:04:44.301Z,100037.56
2022-08-25T12:07:14.861Z,100034.72
2022-08-25T12:09:50.297Z,100031.97
2022-08-25T12:12:41.653Z,100024.16
2022-08-25T12:15:14.721Z,100024.41
2022-08-25T12:17:41.490Z,100031.09
2022-08-25T12:20:08.478Z,100020.50
2022-08-25T12:22:34.980Z,100011.50
2022-08-25T12:25:11.545Z,100028.22
2022-08-25T12:28:00.795Z,100015.28
2022-08-25T12:30:50.633Z,100012.03
2022-08-25T12:33:31.714Z,100004.63
2022-08-25T12:36:11.173Z,100005.88
2022-08-25T12:38:47.318Z,100010.78
2022-08-25T12:41:22.382Z,100013.22
2022-08-25T12:43:54.274Z,100013.94
2022-08-25T12:46:25.561Z,100008.66
2022-08-25T12:49:11.461Z,100003.47
2022-08-25T12:52:12.963Z,99998.81
2022-08-25T12:54:49.052Z,100002.56
2022-08-25T12:57:36.653Z,100008.47
2022-08-25T13:00:16.772Z,100011.63
2022-08-25T13:02:57.289Z,99998.69
2022-08-25T13:05:58.297Z,99996.69
2022-08-25T13:08:59.229Z,99983.47
2022-08-25T13:11:39.896Z,99989.88
2022-08-25T13:14:26.689Z,99987.59
2022-08-25T13:16:59.126Z,99978.03
2022-08-25T13:19:27.271Z,99986.50
2022-08-25T13:22:04.299Z,99978.50
2022-08-25T13:24:40.662Z,99979.13
2022-08-25T13:27:10.570Z,99968.78
2022-08-25T13:29:52.069Z,99964.59
2022-08-25T13:32:32.082Z,99958.69
2022-08-25T13:35:22.011Z,99967.50
2022-08-25T13:37:48.910Z,99951.47
2022-08-25T13:40:25.901Z,99949.03
2022-08-25T13:43:06.658Z,99951.56
2022-08-25T13:45:42.036Z,99945.22
2022-08-25T13:48:22.537Z,99954.81
2022-08-25T13:50:52.015Z,99948.41
2022-08-25T13:53:25.497Z,99941.22
2022-08-25T13:55:57.105Z,99940.03
2022-08-25T13:58:39.006Z,99935.16
2022-08-25T14:01:19.983Z,99933.81
2022-08-25T14:03:51.361Z,99922.88
2022-08-25T14:06:17.685Z,99928.00
2022-08-25T14:08:59.299Z,99922.06
2022-08-25T14:11:44.022Z,99929.22
2022-08-25T14:14:14.629Z,99932.97
2022-08-25T14:16:49.777Z,99931.06
2022-08-25T14:19:20.053Z,99921.19
2022-08-25T14:21:47.418Z,99923.25
2022-08-25T14:24:18.439Z,99924.50
2022-08-25T14:26:54.097Z,99924.50
2022-08-25T14:29:22.086Z,99918.47
2022-08-25T14:31:49.061Z,99915.22
2022-08-25T14:34:25.593Z,99924.63
2022-08-25T14:36:55.889Z,99915.63
2022-08-25T14:39:22.578Z,99903.25
2022-08-25T14:41:52.598Z,99910.19
2022-08-25T14:44:20.107Z,99913.84
2022-08-25T14:46:51.968Z,99905.53
2022-08-25T14:49:24.652Z,99901.31
2022-08-25T14:51:51.730Z,99890.28
2022-08-25T14:54:23.372Z,99888.88
2022-08-25T14:56:49.852Z,99894.63
2022-08-25T14:59:16.970Z,99886.38
2022-08-25T15:01:43.638Z,99879.09
2022-08-25T15:04:17.634Z,99879.47
2022-08-25T15:06:45.069Z,99878.25
2022-08-25T15:09:16.119Z,99875.28
2022-08-25T15:11:45.338Z,99876.31
2022-08-25T15:14:15.406Z,99871.44
2022-08-25T15:16:49.342Z,99868.50
2022-08-25T15:19:18.441Z,99866.16
2022-08-25T15:21:46.968Z,99871.19
2022-08-25T15:24:17.722Z,99875.25
2022-08-25T15:29:25.404Z,99880.78
2022-08-25T15:31:51.901Z,99879.47
2022-08-25T15:34:19.342Z,99875.88
2022-08-25T15:36:46.582Z,99875.09
2022-08-25T15:39:14.574Z,99875.78
2022-08-25T15:41:42.632Z,99867.25
2022-08-25T15:44:11.366Z,99867.06
2022-08-25T15:46:40.579Z,99859.19
2022-08-25T15:49:07.898Z,99865.63
2022-08-25T15:51:34.832Z,99862.03
2022-08-25T15:54:01.245Z,99849.91
2022-08-25T15:56:27.703Z,99848.69
2022-08-25T15:58:55.386Z,99857.28
2022-08-25T16:01:24.907Z,99852.56
2022-08-25T16:03:52.140Z,99848.59
2022-08-25T16:06:18.906Z,99844.69
2022-08-25T16:08:45.497Z,99845.06
2022-08-25T16:11:31.440Z,99843.56
2022-08-25T16:13:58.351Z,99854.16
2022-08-25T16:16:28.557Z,99843.56
2022-08-25T16:18:56.287Z,99854.91
2022-08-25T16:21:29.052Z,99840.97
2022-08-25T16:24:00.329Z,99846.41
2022-08-25T16:26:30.428Z,99855.28
2022-08-25T16:28:57.089Z,99845.72
2022-08-25T16:31:24.730Z,99846.78
2022-08-25T16:33:54.715Z,99841.41
2022-08-25T16:36:27.226Z,99841.09
2022-08-25T16:38:56.026Z,99844.78
2022-08-25T16:41:25.568Z,99839.19
2022-08-25T16:43:52.215Z,99832.16
2022-08-25T16:46:20.815Z,99835.25
2022-08-25T16:48:48.705Z,99837.25
2022-08-25T16:51:19.384Z,99836.66
2022-08-25T16:54:07.853Z,99839.53
2022-08-25T16:56:37.057Z,99847.00
2022-08-25T16:59:06.305Z,99843.13
2022-08-25T17:01:34.025Z,99842.75
2022-08-25T17:04:01.897Z,99836.47
2022-08-25T17:06:30.104Z,99843.47
2022-08-25T17:08:56.765Z,99843.91
2022-08-25T17:11:30.576Z,99842.22
2022-08-25T17:14:00.919Z,99839.53
2022-08-25T17:16:32.466Z,99832.59
2022-08-25T17:19:06.833Z,99831.94
2022-08-25T17:21:36.896Z,99832.50
2022-08-25T17:24:05.035Z,99827.84
2022-08-25T17:26:32.043Z,99839.56
2022-08-25T17:29:01.061Z,99834.66
2022-08-25T17:31:29.973Z,99836.91
2022-08-25T17:33:57.811Z,99844.78
2022-08-25T17:36:26.884Z,99835.16
2022-08-25T17:38:54.446Z,99828.69
2022-08-25T17:41:20.954Z,99830.28
2022-08-25T17:43:47.650Z,99838.59
2022-08-25T17:46:15.111Z,99833.03
2022-08-25T17:48:43.721Z,99841.25
2022-08-25T17:51:10.776Z,99835.88
2022-08-25T17:53:38.443Z,99838.28
2022-08-25T17:56:10.695Z,99835.63
2022-08-25T17:58:38.190Z,99837.94
2022-08-25T18:01:05.526Z,99839.94
2022-08-25T18:03:33.114Z,99837.63
2022-08-25T18:06:00.302Z,99837.00
2022-08-25T18:08:35.195Z,99831.47
2022-08-25T18:11:03.310Z,99841.13
2022-08-25T18:13:31.181Z,99838.63
2022-08-25T18:15:58.057Z,99837.28
2022-08-25T18:18:24.476Z,99843.25
2022-08-25T18:20:51.033Z,99841.69
2022-08-25T18:23:19.522Z,99842.94
2022-08-25T18:25:49.150Z,99845.28
2022-08-25T18:28:16.086Z,99849.41
2022-08-25T18:30:43.172Z,99853.66
2022-08-25T18:33:10.285Z,99840.34
2022-08-25T18:35:36.836Z,99845.78
2022-08-25T18:38:24.078Z,99844.75
2022-08-25T18:40:58.980Z,99846.75
2022-08-25T18:43:26.374Z,99849.97
2022-08-25T18:45:52.837Z,99850.31
2022-08-25T18:48:20.483Z,99848.59
2022-08-25T18:50:47.732Z,99856.09
2022-08-25T18:53:19.108Z,99852.66
2022-08-25T18:55:58.078Z,99856.72
2022-08-25T18:58:25.981Z,99855.00
2022-08-25T19:00:52.645Z,99853.22
2022-08-25T19:03:22.272Z,99845.81
2022-08-25T19:05:57.420Z,99854.59
2022-08-25T19:08:24.973Z,99852.03
2022-08-25T19:10:53.526Z,99846.84
2022-08-25T19:13:22.552Z,99850.84
2022-08-25T19:15:51.393Z,99849.66
2022-08-25T19:18:19.410Z,99850.66
2022-08-25T19:20:55.426Z,99848.00
2022-08-25T19:23:21.845Z,99856.50
2022-08-25T19:25:48.296Z,99866.88
2022-08-25T19:28:14.742Z,99866.59
2022-08-25T19:30:50.138Z,99868.28
2022-08-25T19:33:42.366Z,99859.25
2022-08-25T19:36:06.307Z,99862.31
2022-08-25T19:38:36.095Z,99865.25
2022-08-25T19:41:09.381Z,99866.97
2022-08-25T19:43:56.706Z,99870.72
2022-08-25T19:46:32.740Z,99867.91
2022-08-25T19:49:09.013Z,99865.34
2022-08-25T19:51:44.306Z,99868.50
2022-08-25T19:54:13.745Z,99869.72
2022-08-25T19:56:53.715Z,99878.00
2022-08-25T19:59:22.505Z,99878.84
2022-08-25T20:01:49.791Z,99876.66
2022-08-25T20:04:16.372Z,99878.06
2022-08-25T20:06:42.970Z,99875.72
2022-08-25T20:09:35.743Z,99872.66
2022-08-25T20:12:01.308Z,99874.69
2022-08-25T20:14:29.039Z,99870.56
2022-08-25T20:16:55.535Z,99866.72
2022-08-25T20:19:21.970Z,99869.94
2022-08-25T20:21:48.460Z,99867.13
2022-08-25T20:24:33.270Z,99875.03
2022-08-25T20:27:00.299Z,99879.56
2022-08-25T20:29:26.749Z,99869.00
2022-08-25T20:31:53.329Z,99883.03
2022-08-25T20:34:19.760Z,99873.75
2022-08-25T20:36:49.889Z,99883.94
2022-08-25T20:39:17.786Z,99889.66
2022-08-25T20:41:45.301Z,99885.94
2022-08-25T20:44:15.615Z,99890.97
2022-08-25T20:46:42.082Z,99890.81
2022-08-25T20:49:09.047Z,99890.50
2022-08-25T20:51:35.522Z,99888.38
2022-08-25T20:54:02.044Z,99882.66
2022-08-25T20:56:30.448Z,99889.09
2022-08-25T20:58:56.916Z,99894.63
2022-08-25T21:01:39.701Z,99888.16
2022-08-25T21:04:14.451Z,99879.44
2022-08-25T21:06:41.503Z,99877.28
2022-08-25T21:09:15.909Z,99880.44
2022-08-25T21:11:45.032Z,99878.81
2022-08-25T21:14:12.757Z,99874.44
2022-08-25T21:16:40.827Z,99874.09
2022-08-25T21:19:09.059Z,99873.84
2022-08-25T21:21:38.220Z,99878.69
2022-08-25T21:24:09.794Z,99876.97
2022-08-25T21:26:48.808Z,99880.53
2022-08-25T21:29:16.583Z,99881.53
2022-08-25T21:31:43.108Z,99892.25
2022-08-25T21:34:11.378Z,99881.78
2022-08-25T21:36:39.465Z,99881.47
2022-08-25T21:39:06.237Z,99881.34
2022-08-25T21:41:35.243Z,99883.56
2022-08-25T21:44:03.763Z,99882.03
2022-08-25T21:46:32.394Z,99883.81
2022-08-25T21:49:00.573Z,99880.22
2022-08-25T21:51:40.615Z,99884.03
2022-08-25T21:54:11.907Z,99877.19
2022-08-25T21:57:02.532Z,99879.22
2022-08-25T21:59:32.358Z,99887.28
2022-08-25T22:02:02.096Z,99881.75
2022-08-25T22:04:30.010Z,99875.53
2022-08-25T22:06:58.034Z,99885.56
2022-08-25T22:09:25.219Z,99883.34
2022-08-25T22:11:53.154Z,99884.88
2022-08-25T22:14:23.370Z,99881.16
2022-08-25T22:16:50.456Z,99889.28
2022-08-25T22:19:17.338Z,99891.50
2022-08-25T22:21:44.643Z,99888.25
2022-08-25T22:24:11.858Z,99895.53
2022-08-25T22:26:39.136Z,99897.75
2022-08-25T22:29:06.298Z,99894.88
2022-08-25T22:31:33.762Z,99886.69
2022-08-25T22:34:01.003Z,99894.34
2022-08-25T22:36:34.380Z,99886.88
2022-08-25T22:39:02.121Z,99895.44
2022-08-25T22:41:30.093Z,99894.72
2022-08-25T22:43:57.673Z,99893.59
2022-08-25T22:46:26.422Z,99905.31
2022-08-25T22:48:55.432Z,99908.13
2022-08-25T22:51:25.198Z,99900.63
2022-08-25T22:53:51.859Z,99895.38
2022-08-25T22:56:29.649Z,99898.94
2022-08-25T22:59:01.293Z,99888.47
2022-08-25T23:01:27.919Z,99894.91
2022-08-25T23:03:54.694Z,99889.50
2022-08-25T23:06:24.713Z,99891.47
2022-08-25T23:08:53.569Z,99895.16
2022-08-25T23:11:21.672Z,99880.75
2022-08-25T23:13:49.096Z,99886.19
2022-08-25T23:16:16.968Z,99882.34
2022-08-25T23:18:47.042Z,99884.34
2022-08-25T23:21:35.318Z,99885.19
2022-08-25T23:24:07.595Z,99880.34
2022-08-25T23:26:34.811Z,99875.06
2022-08-25T23:29:03.203Z,99876.34
2022-08-25T23:31:34.417Z,99873.31
2022-08-25T23:34:00.897Z,99876.53
2022-08-25T23:36:29.347Z,99871.38
2022-08-25T23:38:56.198Z,99873.00
2022-08-25T23:41:24.589Z,99866.47
2022-08-25T23:43:51.619Z,99876.75
2022-08-25T23:46:21.699Z,99884.22
2022-08-25T23:48:49.007Z,99883.84
2022-08-25T23:51:23.909Z,99886.31
2022-08-25T23:53:50.779Z,99883.13
2022-08-25T23:56:17.306Z,99876.66
2022-08-25T23:58:43.917Z,99877.75
